createdAt,value
2019-04-16T00:01:45.606Z,12.43
2019-04-16T00:04:33.874Z,13.30
2019-04-16T00:07:20.525Z,13.57
2019-04-16T00:10:09.761Z,12.57
2019-04-16T00:12:58.871Z,13.90
2019-04-16T00:15:31.103Z,13.87
2019-04-16T00:18:02.733Z,16.70
2019-04-16T00:21:02.884Z,13.20
2019-04-16T00:23:25.229Z,12.87
2019-04-16T00:25:56.427Z,11.40
2019-04-16T00:28:30.812Z,13.43
2019-04-16T00:31:04.658Z,12.93
2019-04-16T00:33:39.394Z,14.67
2019-04-16T00:36:06.901Z,15.70
2019-04-16T00:38:40.872Z,12.97
2019-04-16T00:41:08.586Z,13.40
2019-04-16T00:43:39.681Z,12.53
2019-04-16T00:46:11.185Z,14.23
2019-04-16T00:48:41.076Z,14.73
2019-04-16T00:51:10.683Z,12.97
2019-04-16T00:53:39.693Z,12.40
2019-04-16T00:56:13.464Z,14.60
2019-04-16T00:58:41.377Z,11.27
2019-04-16T01:01:12.463Z,14.00
2019-04-16T01:03:42.500Z,13.40
2019-04-16T01:06:10.879Z,15.47
2019-04-16T01:08:54.045Z,16.53
2019-04-16T01:11:15.124Z,15.07
2019-04-16T01:13:46.708Z,12.70
2019-04-16T01:16:15.781Z,12.67
2019-04-16T01:18:47.105Z,14.37
2019-04-16T01:21:15.685Z,14.90
2019-04-16T01:23:48.392Z,11.20
2019-04-16T01:26:21.024Z,15.63
2019-04-16T01:29:08.975Z,17.00
2019-04-16T01:34:36.861Z,12.10
2019-04-16T01:37:09.362Z,16.40
2019-04-16T01:39:51.748Z,14.43
2019-04-16T01:42:25.809Z,14.80
2019-04-16T01:44:59.365Z,12.10
2019-04-16T01:47:26.417Z,12.97
2019-04-16T01:49:57.737Z,12.93
2019-04-16T01:52:26.379Z,12.57
2019-04-16T01:54:56.432Z,11.93
2019-04-16T01:57:24.870Z,16.30
2019-04-16T01:59:55.779Z,14.00
2019-04-16T02:02:24.157Z,15.50
2019-04-16T02:04:52.814Z,12.17
2019-04-16T02:07:22.056Z,15.73
2019-04-16T02:09:53.369Z,11.57
2019-04-16T02:12:21.757Z,15.37
2019-04-16T02:14:51.068Z,14.13
2019-04-16T02:17:20.112Z,14.90
2019-04-16T02:19:50.129Z,12.63
2019-04-16T02:22:18.521Z,16.07
2019-04-16T02:24:49.565Z,14.60
2019-04-16T02:27:17.956Z,13.03
2019-04-16T02:29:46.581Z,15.47
2019-04-16T02:32:17.616Z,13.77
2019-04-16T02:34:50.038Z,14.70
2019-04-16T02:37:21.505Z,12.60
2019-04-16T02:39:50.127Z,13.57
2019-04-16T02:42:18.519Z,12.47
2019-04-16T02:44:49.834Z,12.10
2019-04-16T02:47:17.192Z,10.40
2019-04-16T02:49:48.777Z,14.47
2019-04-16T02:52:37.037Z,13.30
2019-04-16T02:55:20.038Z,13.70
2019-04-16T02:57:59.620Z,14.50
2019-04-16T03:00:37.232Z,14.73
2019-04-16T03:03:10.113Z,14.00
2019-04-16T03:05:46.324Z,15.60
2019-04-16T03:08:20.645Z,11.57
2019-04-16T03:10:52.231Z,14.23
2019-04-16T03:13:32.272Z,13.87
2019-04-16T03:16:17.009Z,15.10
2019-04-16T03:18:50.069Z,14.57
2019-04-16T03:21:20.548Z,10.60
2019-04-16T03:23:49.190Z,12.43
2019-04-16T03:26:18.654Z,9.80
2019-04-16T03:28:55.682Z,13.10
2019-04-16T03:31:24.155Z,10.87
2019-04-16T03:33:58.625Z,12.73
2019-04-16T03:36:30.352Z,14.67
2019-04-16T03:39:12.044Z,11.57
2019-04-16T03:41:39.832Z,11.53
2019-04-16T03:44:11.284Z,11.90
2019-04-16T03:46:45.972Z,14.03
2019-04-16T03:49:17.293Z,12.63
2019-04-16T03:51:48.288Z,13.30
2019-04-16T03:54:18.877Z,12.70
2019-04-16T03:56:48.990Z,13.07
2019-04-16T03:59:20.302Z,11.57
2019-04-16T04:01:56.046Z,11.63
2019-04-16T04:04:29.283Z,14.00
2019-04-16T04:06:59.538Z,12.03
2019-04-16T04:09:28.778Z,17.10
2019-04-16T04:11:59.652Z,15.27
2019-04-16T04:14:28.281Z,14.23
2019-04-16T04:16:58.344Z,15.67
2019-04-16T04:19:29.146Z,18.87
2019-04-16T04:21:57.528Z,12.97
2019-04-16T04:24:28.473Z,13.60
2019-04-16T04:26:58.925Z,12.70
2019-04-16T04:29:28.979Z,15.27
2019-04-16T04:31:57.583Z,12.67
2019-04-16T04:34:27.997Z,16.57
2019-04-16T04:37:00.799Z,16.07
2019-04-16T04:39:32.249Z,12.80
2019-04-16T04:42:00.710Z,14.43
2019-04-16T04:44:29.089Z,12.47
2019-04-16T04:46:57.490Z,14.40
2019-04-16T04:49:31.493Z,13.53
2019-04-16T04:51:59.998Z,15.93
2019-04-16T04:54:28.457Z,13.23
2019-04-16T04:56:59.266Z,14.10
2019-04-16T04:59:30.732Z,11.40
2019-04-16T05:02:02.011Z,13.37
2019-04-16T05:04:52.457Z,13.67
2019-04-16T05:07:25.650Z,12.17
2019-04-16T05:09:55.785Z,12.60
2019-04-16T05:12:27.086Z,13.53
2019-04-16T05:14:58.414Z,11.83
2019-04-16T05:17:27.229Z,14.37
2019-04-16T05:19:55.609Z,15.37
2019-04-16T05:22:25.120Z,10.73
2019-04-16T05:25:00.862Z,16.00
2019-04-16T05:27:32.226Z,16.00
2019-04-16T05:30:00.659Z,11.77
2019-04-16T05:32:32.888Z,11.43
2019-04-16T05:35:09.166Z,12.60
2019-04-16T05:37:35.752Z,13.90
2019-04-16T05:40:09.097Z,13.17
2019-04-16T05:42:37.495Z,12.03
2019-04-16T05:45:09.233Z,11.40
2019-04-16T05:47:43.421Z,16.90
2019-04-16T05:50:15.041Z,22.77
2019-04-16T05:52:52.000Z,19.87
2019-04-16T05:55:34.251Z,15.00
2019-04-16T05:58:02.642Z,13.60
2019-04-16T06:00:47.666Z,14.70
2019-04-16T06:03:22.303Z,14.40
2019-04-16T06:05:50.912Z,13.30
2019-04-16T06:08:20.941Z,16.40
2019-04-16T06:10:50.908Z,12.47
2019-04-16T06:13:30.107Z,15.00
2019-04-16T06:16:12.133Z,12.57
2019-04-16T06:18:42.180Z,13.30
2019-04-16T06:21:26.820Z,14.60
2019-04-16T06:24:03.112Z,12.20
2019-04-16T06:26:33.717Z,13.37
2019-04-16T06:29:12.805Z,13.30
2019-04-16T06:31:45.948Z,13.43
2019-04-16T06:34:18.936Z,9.83
2019-04-16T06:36:49.603Z,11.83
2019-04-16T06:39:22.357Z,12.63
2019-04-16T06:42:08.810Z,13.30
2019-04-16T06:44:54.193Z,14.20
2019-04-16T06:47:26.323Z,14.57
2019-04-16T06:50:01.891Z,11.00
2019-04-16T06:52:40.858Z,13.97
2019-04-16T06:55:14.235Z,11.93
2019-04-16T06:57:47.309Z,11.37
2019-04-16T07:00:23.449Z,9.87
2019-04-16T07:03:13.545Z,13.00
2019-04-16T07:05:46.061Z,12.00
2019-04-16T07:08:22.082Z,11.70
2019-04-16T07:11:10.401Z,10.00
2019-04-16T07:13:41.903Z,13.40
2019-04-16T07:16:10.698Z,9.53
2019-04-16T07:18:41.548Z,15.27
2019-04-16T07:21:09.929Z,14.27
2019-04-16T07:23:38.529Z,10.97
2019-04-16T07:26:06.930Z,13.03
2019-04-16T07:28:42.846Z,12.80
2019-04-16T07:31:31.808Z,14.17
2019-04-16T07:34:06.478Z,12.60
2019-04-16T07:36:42.494Z,11.87
2019-04-16T07:39:28.248Z,9.10
2019-04-16T07:42:08.378Z,13.33
2019-04-16T07:44:29.567Z,12.53
2019-04-16T07:47:11.289Z,9.53
2019-04-16T07:49:44.276Z,11.83
2019-04-16T07:52:29.530Z,11.57
2019-04-16T07:55:10.945Z,16.40
2019-04-16T07:57:39.332Z,12.77
2019-04-16T08:00:14.701Z,14.37
2019-04-16T08:02:44.369Z,10.73
2019-04-16T08:05:12.714Z,12.73
2019-04-16T08:07:42.431Z,11.73
2019-04-16T08:10:12.218Z,9.67
2019-04-16T08:12:42.400Z,10.67
2019-04-16T08:15:15.490Z,13.20
2019-04-16T08:17:44.501Z,12.93
2019-04-16T08:20:14.061Z,13.75
2019-04-16T08:22:49.273Z,12.63
2019-04-16T08:25:19.301Z,14.35
2019-04-16T08:27:50.785Z,13.03
2019-04-16T08:30:22.689Z,12.10
2019-04-16T08:32:51.085Z,16.32
2019-04-16T08:35:19.492Z,13.05
2019-04-16T08:37:49.048Z,13.10
2019-04-16T08:40:19.893Z,13.32
2019-04-16T08:42:48.325Z,10.95
2019-04-16T08:45:20.366Z,14.20
2019-04-16T08:47:47.130Z,14.63
2019-04-16T08:50:15.705Z,14.30
2019-04-16T08:52:47.070Z,13.32
2019-04-16T08:55:20.490Z,13.40
2019-04-16T08:57:48.405Z,16.20
2019-04-16T09:00:19.591Z,15.30
2019-04-16T09:02:48.280Z,12.90
2019-04-16T09:05:28.021Z,14.70
2019-04-16T09:08:10.885Z,11.97
2019-04-16T09:10:30.869Z,13.72
2019-04-16T09:13:03.814Z,13.50
2019-04-16T09:15:37.718Z,14.38
2019-04-16T09:18:10.809Z,13.05
2019-04-16T09:20:40.843Z,13.58
2019-04-16T09:23:09.246Z,14.05
2019-04-16T09:26:12.129Z,14.75
2019-04-16T09:28:36.548Z,14.90
2019-04-16T09:31:23.648Z,13.68
2019-04-16T09:33:57.402Z,16.40
2019-04-16T09:36:44.744Z,12.47
2019-04-16T09:39:20.314Z,15.85
2019-04-16T09:41:49.252Z,16.80
2019-04-16T09:44:22.564Z,13.72
2019-04-16T09:46:52.664Z,14.40
2019-04-16T09:49:21.657Z,14.38
2019-04-16T09:51:51.129Z,12.98
2019-04-16T09:54:20.236Z,15.45
2019-04-16T09:56:48.633Z,15.32
2019-04-16T09:59:18.661Z,13.75
2019-04-16T10:01:53.093Z,15.15
2019-04-16T10:04:22.217Z,16.75
2019-04-16T10:06:54.109Z,17.65
2019-04-16T10:09:26.880Z,15.85
2019-04-16T10:11:57.915Z,14.47
2019-04-16T10:14:32.097Z,15.15
2019-04-16T10:17:00.729Z,17.50
2019-04-16T10:19:32.073Z,18.67
2019-04-16T10:22:00.618Z,15.63
2019-04-16T10:24:54.662Z,15.23
2019-04-16T10:27:32.271Z,20.52
2019-04-16T10:30:02.127Z,14.38
2019-04-16T10:32:36.549Z,16.52
2019-04-16T10:35:07.845Z,19.35
2019-04-16T10:37:36.238Z,16.93
2019-04-16T10:40:15.563Z,16.82
2019-04-16T10:43:00.940Z,18.12
2019-04-16T10:45:46.034Z,21.75
2019-04-16T10:48:32.341Z,17.87
2019-04-16T10:51:15.256Z,16.37
2019-04-16T10:54:01.367Z,17.27
2019-04-16T10:56:47.904Z,18.37
2019-04-16T10:59:17.928Z,18.95
2019-04-16T11:01:48.017Z,16.20
2019-04-16T11:04:24.043Z,16.70
2019-04-16T11:06:57.076Z,18.42
2019-04-16T11:09:25.463Z,16.85
2019-04-16T11:11:53.851Z,18.27
2019-04-16T11:14:22.520Z,17.37
2019-04-16T11:16:54.448Z,16.50
2019-04-16T11:19:24.710Z,16.55
2019-04-16T11:21:56.047Z,21.23
2019-04-16T11:24:27.733Z,20.85
2019-04-16T11:27:00.725Z,18.65
2019-04-16T11:29:29.137Z,20.55
2019-04-16T11:31:59.397Z,20.43
2019-04-16T11:34:32.153Z,20.77
2019-04-16T11:37:07.259Z,20.43
2019-04-16T11:39:36.110Z,19.98
2019-04-16T11:42:08.218Z,19.02
2019-04-16T11:44:46.129Z,18.42
2019-04-16T11:47:16.178Z,18.92
2019-04-16T11:49:44.721Z,19.82
2019-04-16T11:52:13.150Z,18.65
2019-04-16T11:54:50.257Z,20.27
2019-04-16T11:57:24.252Z,17.05
2019-04-16T12:00:06.027Z,16.97
2019-04-16T12:02:38.778Z,14.93
2019-04-16T12:05:11.734Z,15.72
2019-04-16T12:07:53.675Z,16.52
2019-04-16T12:10:38.982Z,17.42
2019-04-16T12:13:23.989Z,13.38
2019-04-16T12:16:09.889Z,15.40
2019-04-16T12:18:39.933Z,13.55
2019-04-16T12:21:15.914Z,13.32
2019-04-16T12:23:54.998Z,14.73
2019-04-16T12:26:25.075Z,16.25
2019-04-16T12:29:06.852Z,15.10
2019-04-16T12:31:40.123Z,14.07
2019-04-16T12:34:16.569Z,15.65
2019-04-16T12:36:52.618Z,15.58
2019-04-16T12:39:35.922Z,20.85
2019-04-16T12:42:14.784Z,15.95
2019-04-16T12:44:56.143Z,19.10
2019-04-16T12:47:26.200Z,13.45
2019-04-16T12:49:59.511Z,15.63
2019-04-16T12:52:46.094Z,15.28
2019-04-16T12:55:16.125Z,16.40
2019-04-16T12:57:47.264Z,17.40
2019-04-16T13:00:19.849Z,13.85
2019-04-16T13:02:55.741Z,15.13
2019-04-16T13:05:44.707Z,12.15
2019-04-16T13:08:15.094Z,15.23
2019-04-16T13:10:53.998Z,12.37
2019-04-16T13:13:29.696Z,17.15
2019-04-16T13:16:02.432Z,14.03
2019-04-16T13:18:32.477Z,12.68
2019-04-16T13:21:08.158Z,11.43
2019-04-16T13:23:49.981Z,12.03
2019-04-16T13:26:20.010Z,13.30
2019-04-16T13:28:55.241Z,14.75
2019-04-16T13:31:24.488Z,13.80
2019-04-16T13:33:53.675Z,12.98
2019-04-16T13:36:26.928Z,14.25
2019-04-16T13:39:09.368Z,14.23
2019-04-16T13:41:38.227Z,14.00
2019-04-16T13:44:16.954Z,13.65
2019-04-16T13:46:44.248Z,13.15
2019-04-16T13:49:14.288Z,12.75
2019-04-16T13:51:44.969Z,14.30
2019-04-16T13:54:40.013Z,15.23
2019-04-16T13:57:13.011Z,13.60
2019-04-16T14:00:04.377Z,11.83
2019-04-16T14:02:39.811Z,11.57
2019-04-16T14:05:10.858Z,10.43
2019-04-16T14:07:39.329Z,11.20
2019-04-16T14:10:10.266Z,8.83
2019-04-16T14:12:42.647Z,11.48
2019-04-16T14:15:30.827Z,9.43
2019-04-16T14:17:52.763Z,10.03
2019-04-16T14:20:18.169Z,9.23
2019-04-16T14:22:58.697Z,9.05
2019-04-16T14:25:27.525Z,9.45
2019-04-16T14:28:03.150Z,10.08
2019-04-16T14:30:31.593Z,10.60
2019-04-16T14:33:00.026Z,10.00
2019-04-16T14:35:40.265Z,9.70
2019-04-16T14:38:14.621Z,10.38
2019-04-16T14:40:43.108Z,11.35
2019-04-16T14:43:13.325Z,10.05
2019-04-16T14:45:57.617Z,10.48
2019-04-16T14:48:13.544Z,13.68
2019-04-16T14:50:42.610Z,12.15
2019-04-16T14:53:11.073Z,13.40
2019-04-16T14:55:43.695Z,11.10
2019-04-16T14:58:30.162Z,10.88
2019-04-16T15:01:00.435Z,10.25
2019-04-16T15:03:46.757Z,13.35
2019-04-16T15:06:25.918Z,13.98
2019-04-16T15:09:01.838Z,14.70
2019-04-16T15:11:49.768Z,14.83
2019-04-16T15:14:23.459Z,14.93
2019-04-16T15:17:12.997Z,13.08
2019-04-16T15:19:48.528Z,15.00
2019-04-16T15:22:30.889Z,15.05
2019-04-16T15:25:20.301Z,12.45
2019-04-16T15:27:56.584Z,15.58
2019-04-16T15:30:43.885Z,13.32
2019-04-16T15:33:21.185Z,16.07
2019-04-16T15:35:52.021Z,18.73
2019-04-16T15:38:29.598Z,18.20
2019-04-16T15:41:17.571Z,15.85
2019-04-16T15:44:03.892Z,18.25
2019-04-16T15:46:46.200Z,14.60
2019-04-16T15:49:25.089Z,17.17
2019-04-16T15:52:01.522Z,17.17
2019-04-16T15:54:43.535Z,17.07
2019-04-16T15:57:36.113Z,16.55
2019-04-16T16:00:16.065Z,17.30
2019-04-16T16:03:01.554Z,20.48
2019-04-16T16:05:32.125Z,17.70
2019-04-16T16:08:23.275Z,17.73
2019-04-16T16:10:55.980Z,19.23
2019-04-16T16:13:26.497Z,18.25
2019-04-16T16:16:02.113Z,19.87
2019-04-16T16:18:30.586Z,17.05
2019-04-16T16:21:00.878Z,14.63
2019-04-16T16:23:33.040Z,14.60
2019-04-16T16:26:05.541Z,13.38
2019-04-16T16:28:38.874Z,14.55
2019-04-16T16:31:07.272Z,19.35
2019-04-16T16:33:41.373Z,15.25
2019-04-16T16:36:12.466Z,16.62
2019-04-16T16:38:50.233Z,13.32
2019-04-16T16:41:18.629Z,15.08
2019-04-16T16:43:50.487Z,12.78
2019-04-16T16:46:21.291Z,14.40
2019-04-16T16:48:51.077Z,15.45
2019-04-16T16:51:22.894Z,12.35
2019-04-16T16:54:09.785Z,14.45
2019-04-16T16:56:51.852Z,13.62
2019-04-16T16:59:27.586Z,11.20
2019-04-16T17:02:10.244Z,12.68
2019-04-16T17:04:41.801Z,11.60
2019-04-16T17:07:17.789Z,11.73
2019-04-16T17:09:46.381Z,11.80
2019-04-16T17:12:14.784Z,11.70
2019-04-16T17:14:43.258Z,13.73
2019-04-16T17:17:15.089Z,14.93
2019-04-16T17:19:43.350Z,13.03
2019-04-16T17:22:17.436Z,14.60
2019-04-16T17:24:45.959Z,13.90
2019-04-16T17:27:14.363Z,13.35
2019-04-16T17:29:42.761Z,17.30
2019-04-16T17:32:11.469Z,12.03
2019-04-16T17:34:42.932Z,11.63
2019-04-16T17:37:12.956Z,8.13
2019-04-16T17:39:48.349Z,5.53
2019-04-16T17:42:21.065Z,3.80
2019-04-16T17:44:51.085Z,3.50
2019-04-16T17:47:37.437Z,5.70
2019-04-16T17:50:23.177Z,3.30
2019-04-16T17:53:10.101Z,6.07
2019-04-16T17:55:56.437Z,11.20
2019-04-16T17:58:36.364Z,5.50
2019-04-16T18:01:24.324Z,3.30
2019-04-16T18:04:11.637Z,5.03
2019-04-16T18:06:51.842Z,7.77
2019-04-16T18:09:33.441Z,4.03
2019-04-16T18:12:03.465Z,4.27
2019-04-16T18:14:50.133Z,4.67
2019-04-16T18:17:46.088Z,7.83
2019-04-16T18:20:06.340Z,4.47
2019-04-16T18:22:52.702Z,4.20
2019-04-16T18:25:55.046Z,5.30
2019-04-16T18:28:17.686Z,4.53
2019-04-16T18:30:50.695Z,4.63
2019-04-16T18:33:23.430Z,4.90
2019-04-16T18:35:53.541Z,4.00
2019-04-16T18:38:23.565Z,4.17
2019-04-16T18:41:02.458Z,7.00
2019-04-16T18:43:37.089Z,4.33
2019-04-16T18:46:15.793Z,4.63
2019-04-16T18:49:08.097Z,5.30
2019-04-16T18:51:39.150Z,4.03
2019-04-16T18:54:09.183Z,3.00
2019-04-16T18:56:38.589Z,4.50
2019-04-16T18:59:41.570Z,2.70
2019-04-16T19:01:46.363Z,3.30
2019-04-16T19:04:14.741Z,3.83
2019-04-16T19:06:43.164Z,2.60
2019-04-16T19:09:16.125Z,2.27
2019-04-16T19:11:44.543Z,3.40
2019-04-16T19:14:14.806Z,2.77
2019-04-16T19:16:43.202Z,1.90
2019-04-16T19:19:11.854Z,2.27
2019-04-16T19:21:42.491Z,3.03
2019-04-16T19:24:14.669Z,2.40
2019-04-16T19:26:44.701Z,3.50
2019-04-16T19:29:16.314Z,2.87
2019-04-16T19:31:48.431Z,2.20
2019-04-16T19:34:17.024Z,1.93
2019-04-16T19:36:46.894Z,2.33
2019-04-16T19:39:15.736Z,1.83
2019-04-16T19:41:45.128Z,1.87
2019-04-16T19:44:13.505Z,2.07
2019-04-16T19:46:45.996Z,4.33
2019-04-16T19:49:17.839Z,1.80
2019-04-16T19:51:46.646Z,2.10
2019-04-16T19:54:15.033Z,2.07
2019-04-16T19:56:43.422Z,2.20
2019-04-16T19:59:17.617Z,1.97
2019-04-16T20:01:50.446Z,2.30
2019-04-16T20:04:24.422Z,3.10
2019-04-16T20:06:59.721Z,2.43
2019-04-16T20:09:28.155Z,2.17
2019-04-16T20:11:59.666Z,3.37
2019-04-16T20:14:35.751Z,3.23
2019-04-16T20:17:03.006Z,2.50
2019-04-16T20:19:31.445Z,2.50
2019-04-16T20:22:00.474Z,2.20
2019-04-16T20:24:28.858Z,2.17
2019-04-16T20:26:57.237Z,2.00
2019-04-16T20:29:25.646Z,1.83
2019-04-16T20:31:54.029Z,2.23
2019-04-16T20:34:22.656Z,2.27
2019-04-16T20:36:56.788Z,2.17
2019-04-16T20:39:24.137Z,2.17
2019-04-16T20:41:54.045Z,2.03
2019-04-16T20:44:22.636Z,3.43
2019-04-16T20:46:51.033Z,2.20
2019-04-16T20:49:29.104Z,2.23
2019-04-16T20:52:04.223Z,2.30
2019-04-16T20:54:36.073Z,2.37
2019-04-16T20:57:06.341Z,2.53
2019-04-16T20:59:36.023Z,2.27
2019-04-16T21:02:07.509Z,2.00
2019-04-16T21:04:38.849Z,2.50
2019-04-16T21:07:16.495Z,2.43
2019-04-16T21:09:41.993Z,2.20
2019-04-16T21:12:13.309Z,5.17
2019-04-16T21:14:46.436Z,2.80
2019-04-16T21:17:16.462Z,2.43
2019-04-16T21:19:49.371Z,2.37
2019-04-16T21:22:24.976Z,2.80
2019-04-16T21:24:53.818Z,2.70
2019-04-16T21:27:34.336Z,2.30
2019-04-16T21:30:08.593Z,1.93
2019-04-16T21:32:52.685Z,2.60
2019-04-16T21:35:22.717Z,2.57
2019-04-16T21:37:55.975Z,3.37
2019-04-16T21:40:24.880Z,2.33
2019-04-16T21:42:53.258Z,2.60
2019-04-16T21:45:23.435Z,2.83
2019-04-16T21:47:54.794Z,2.50
2019-04-16T21:50:23.580Z,2.67
2019-04-16T21:52:55.678Z,2.30
2019-04-16T21:55:28.177Z,3.03
2019-04-16T21:57:56.599Z,2.70
2019-04-16T22:00:35.841Z,2.83
2019-04-16T22:03:09.434Z,3.13
2019-04-16T22:05:36.565Z,2.90
2019-04-16T22:08:05.617Z,3.17
2019-04-16T22:10:46.382Z,3.77
2019-04-16T22:13:19.131Z,8.40
2019-04-16T22:15:57.497Z,10.93
2019-04-16T22:18:26.407Z,7.80
2019-04-16T22:20:56.433Z,5.80
2019-04-16T22:23:26.473Z,14.60
2019-04-16T22:25:57.151Z,8.70
2019-04-16T22:28:31.041Z,7.00
2019-04-16T22:30:59.424Z,6.33
2019-04-16T22:33:33.650Z,5.33
2019-04-16T22:36:02.022Z,4.00
2019-04-16T22:38:37.421Z,6.53
2019-04-16T22:41:07.476Z,3.00
2019-04-16T22:43:52.569Z,2.60
2019-04-16T22:46:25.724Z,2.63
2019-04-16T22:48:58.428Z,2.97
2019-04-16T22:51:30.666Z,2.67
2019-04-16T22:54:07.681Z,2.50
2019-04-16T22:56:40.204Z,2.80
2019-04-16T22:59:17.117Z,2.10
2019-04-16T23:01:47.148Z,2.40
2019-04-16T23:04:15.527Z,2.40
2019-04-16T23:06:48.280Z,3.70
2019-04-16T23:09:17.874Z,3.33
2019-04-16T23:11:52.739Z,2.77
2019-04-16T23:14:19.164Z,2.50
2019-04-16T23:16:50.396Z,9.90
2019-04-16T23:19:21.694Z,9.37
2019-04-16T23:21:50.107Z,4.40
2019-04-16T23:24:23.047Z,3.73
2019-04-16T23:26:53.624Z,3.50
2019-04-16T23:29:28.313Z,3.40
2019-04-16T23:31:59.849Z,3.40
2019-04-16T23:34:29.869Z,3.17
2019-04-16T23:36:58.738Z,2.80
2019-04-16T23:39:28.777Z,3.20
2019-04-16T23:41:58.575Z,3.33
2019-04-16T23:44:31.613Z,3.03
2019-04-16T23:47:18.090Z,3.73
2019-04-16T23:49:51.052Z,4.43
2019-04-16T23:52:39.232Z,3.20
2019-04-16T23:55:21.093Z,2.83
2019-04-16T23:58:07.385Z,3.23
